Time,TemperatureF,DewpointF,PressureIn,WindDirection,WindDirectionDegrees,WindSpeedMPH,WindSpeedGustMPH,Humidity,HourlyPrecipIn,Conditions,Clouds,dailyrainin,SoftwareType,DateUTC
2013-06-13 00:01:00,53.3,49.5,29.82,West,281,0.0,0.0,87,0.00,,,0.00,Wunderground v.1.15,2013-06-13 04:01:00,
2013-06-13 00:02:00,53.3,49.5,29.82,West,281,0.0,0.0,87,0.00,,,0.00,Wunderground v.1.15,2013-06-13 04:02:00,
2013-06-13 00:04:00,53.2,49.4,29.82,West,281,0.0,0.0,87,0.00,,,0.00,Wunderground v.1.15,2013-06-13 04:04:00,
2013-06-13 00:05:00,53.1,49.3,29.82,West,281,0.0,0.0,87,0.00,,,0.00,Wunderground v.1.15,2013-06-13 04:05:00,
2013-06-13 00:11:00,53.0,49.2,29.82,West,281,0.0,0.0,87,0.00,,,0.00,Wunderground v.1.15,2013-06-13 04:11:00,
2013-06-13 00:17:00,53.1,49.0,29.82,West,281,0.0,0.0,86,0.00,,,0.00,Wunderground v.1.15,2013-06-13 04:17:00,
2013-06-13 00:20:00,53.1,49.0,29.82,West,281,0.0,0.0,86,0.00,,,0.00,Wunderground v.1.15,2013-06-13 04:20:00,
2013-06-13 00:26:00,53.1,49.0,29.81,West,281,0.0,0.0,86,0.00,,,0.00,Wunderground v.1.15,2013-06-13 04:26:00,
2013-06-13 00:31:00,53.0,48.9,29.81,West,281,0.0,0.0,86,0.00,,,0.00,Wunderground v.1.15,2013-06-13 04:31:00,
2013-06-13 00:36:00,52.9,48.8,29.81,West,281,0.0,0.0,86,0.00,,,0.00,Wunderground v.1.15,2013-06-13 04:36:00,
2013-06-13 00:41:00,52.7,48.6,29.81,West,281,0.0,0.0,86,0.00,,,0.00,Wunderground v.1.15,2013-06-13 04:41:00,
2013-06-13 00:47:00,52.5,48.4,29.80,West,281,0.0,0.0,86,0.00,,,0.00,Wunderground v.1.15,2013-06-13 04:47:00,
2013-06-13 00:52:00,52.4,48.3,29.80,West,281,0.0,0.0,86,0.00,,,0.00,Wunderground v.1.15,2013-06-13 04:52:00,
2013-06-13 00:58:00,52.2,48.1,29.80,West,281,0.0,0.0,86,0.00,,,0.00,Wunderground v.1.15,2013-06-13 04:58:00,
2013-06-13 01:04:00,52.1,48.0,29.79,West,281,0.0,0.0,86,0.00,,,0.00,Wunderground v.1.15,2013-06-13 05:04:00,
2013-06-13 01:10:00,52.1,47.7,29.79,West,281,0.0,0.0,85,0.00,,,0.00,Wunderground v.1.15,2013-06-13 05:10:00,
2013-06-13 01:15:00,52.5,47.8,29.79,West,280,0.0,0.0,84,0.00,,,0.00,Wunderground v.1.15,2013-06-13 05:15:00,
2013-06-13 01:21:00,53.3,48.3,29.79,West,279,1.0,1.0,83,0.00,,,0.00,Wunderground v.1.15,2013-06-13 05:21:00,
2013-06-13 01:26:00,53.4,48.4,29.79,West,279,1.0,1.0,83,0.00,,,0.00,Wunderground v.1.15,2013-06-13 05:26:00,
2013-06-13 01:32:00,53.3,48.6,29.79,West,279,0.0,0.0,84,0.00,,,0.00,Wunderground v.1.15,2013-06-13 05:32:00,
2013-06-13 01:37:00,53.2,48.5,29.78,West,279,0.0,0.0,84,0.00,,,0.00,Wunderground v.1.15,2013-06-13 05:37:00,
2013-06-13 01:43:00,53.2,48.5,29.78,West,276,0.0,0.0,84,0.00,,,0.00,Wunderground v.1.15,2013-06-13 05:43:00,
2013-06-13 01:49:00,53.2,48.5,29.79,West,276,0.0,0.0,84,0.00,,,0.00,Wunderground v.1.15,2013-06-13 05:49:00,
2013-06-13 01:55:00,53.4,48.4,29.78,West,276,0.0,0.0,83,0.00,,,0.00,Wunderground v.1.15,2013-06-13 05:55:00,
2013-06-13 02:00:00,53.9,48.5,29.79,WSW,254,0.0,1.0,82,0.00,,,0.00,Wunderground v.1.15,2013-06-13 06:00:00,
2013-06-13 02:05:00,54.3,48.9,29.79,WSW,254,0.0,2.0,82,0.00,,,0.00,Wunderground v.1.15,2013-06-13 06:05:00,
2013-06-13 02:11:00,54.4,49.3,29.79,WSW,254,0.0,0.0,83,0.00,,,0.00,Wunderground v.1.15,2013-06-13 06:11:00,
2013-06-13 02:16:00,54.4,49.3,29.78,WSW,254,0.0,0.0,83,0.00,,,0.00,Wunderground v.1.15,2013-06-13 06:16:00,
2013-06-13 02:21:00,54.4,49.3,29.78,WSW,254,0.0,0.0,83,0.00,,,0.00,Wunderground v.1.15,2013-06-13 06:21:00,
2013-06-13 02:27:00,54.5,49.4,29.78,WSW,254,0.0,0.0,83,0.00,,,0.00,Wunderground v.1.15,2013-06-13 06:27:00,
2013-06-13 02:33:00,54.7,49.6,29.78,WSW,254,0.0,0.0,83,0.00,,,0.00,Wunderground v.1.15,2013-06-13 06:33:00,
2013-06-13 02:38:00,54.8,49.4,29.78,WSW,254,0.0,2.0,82,0.00,,,0.00,Wunderground v.1.15,2013-06-13 06:38:00,
2013-06-13 02:43:00,54.9,49.8,29.77,WSW,254,0.0,0.0,83,0.00,,,0.00,Wunderground v.1.15,2013-06-13 06:43:00,
2013-06-13 02:48:00,55.0,49.9,29.77,WNW,282,0.0,2.0,83,0.00,,,0.00,Wunderground v.1.15,2013-06-13 06:48:00,
2013-06-13 02:54:00,55.1,50.0,29.77,WNW,282,0.0,0.0,83,0.00,,,0.00,Wunderground v.1.15,2013-06-13 06:54:00,
2013-06-13 02:59:00,55.1,50.0,29.77,WNW,282,0.0,0.0,83,0.00,,,0.00,Wunderground v.1.15,2013-06-13 06:59:00,
2013-06-13 03:05:00,55.1,50.0,29.77,WNW,282,0.0,0.0,83,0.00,,,0.00,Wunderground v.1.15,2013-06-13 07:05:00,
2013-06-13 03:10:00,55.2,50.1,29.76,West,278,0.0,1.0,83,0.00,,,0.00,Wunderground v.1.15,2013-06-13 07:10:00,
2013-06-13 03:16:00,55.2,50.1,29.76,West,275,0.0,1.0,83,0.00,,,0.00,Wunderground v.1.15,2013-06-13 07:16:00,
2013-06-13 03:22:00,55.3,50.2,29.76,SSE,168,0.0,0.0,83,0.00,,,0.00,Wunderground v.1.15,2013-06-13 07:22:00,
2013-06-13 03:27:00,55.3,50.2,29.77,SSE,168,0.0,0.0,83,0.00,,,0.00,Wunderground v.1.15,2013-06-13 07:27:00,
2013-06-13 03:33:00,55.3,50.2,29.77,SE,144,0.0,1.0,83,0.00,,,0.00,Wunderground v.1.15,2013-06-13 07:33:00,
2013-06-13 03:39:00,55.4,50.6,29.77,East,90,0.0,3.0,84,0.00,,,0.00,Wunderground v.1.15,2013-06-13 07:39:00,
2013-06-13 03:44:00,55.4,50.6,29.76,NE,51,1.0,3.0,84,0.00,,,0.00,Wunderground v.1.15,2013-06-13 07:44:00,
2013-06-13 03:50:00,55.4,50.6,29.75,NE,51,1.0,1.0,84,0.00,,,0.00,Wunderground v.1.15,2013-06-13 07:50:00,
2013-06-13 03:56:00,55.4,50.6,29.75,NE,46,1.0,2.0,84,0.00,,,0.00,Wunderground v.1.15,2013-06-13 07:56:00,
2013-06-13 04:01:00,55.5,50.7,29.75,NE,47,1.0,1.0,84,0.00,,,0.00,Wunderground v.1.15,2013-06-13 08:01:00,
2013-06-13 04:07:00,55.5,50.7,29.74,ENE,62,0.0,1.0,84,0.00,,,0.00,Wunderground v.1.15,2013-06-13 08:07:00,
2013-06-13 04:13:00,55.6,51.2,29.74,ENE,72,0.0,1.0,85,0.00,,,0.00,Wunderground v.1.15,2013-06-13 08:13:00,
2013-06-13 04:18:00,55.7,51.3,29.74,East,80,0.0,2.0,85,0.00,,,0.00,Wunderground v.1.15,2013-06-13 08:18:00,
2013-06-13 04:23:00,55.8,51.4,29.74,East,80,0.0,1.0,85,0.00,,,0.00,Wunderground v.1.15,2013-06-13 08:23:00,
2013-06-13 04:28:00,55.9,51.5,29.73,East,80,0.0,1.0,85,0.00,,,0.00,Wunderground v.1.15,2013-06-13 08:28:00,
2013-06-13 04:34:00,56.0,51.6,29.73,NE,49,0.0,3.0,85,0.00,,,0.00,Wunderground v.1.15,2013-06-13 08:34:00,
2013-06-13 04:40:00,56.1,52.0,29.73,ENE,59,0.0,0.0,86,0.00,,,0.00,Wunderground v.1.15,2013-06-13 08:40:00,
2013-06-13 04:45:00,56.2,52.1,29.72,ENE,63,0.0,1.0,86,0.00,,,0.00,Wunderground v.1.15,2013-06-13 08:45:00,
2013-06-13 04:51:00,56.3,52.2,29.72,SE,132,1.0,3.0,86,0.00,,,0.00,Wunderground v.1.15,2013-06-13 08:51:00,
2013-06-13 04:57:00,56.4,52.6,29.72,ESE,103,1.0,3.0,87,0.00,,,0.00,Wunderground v.1.15,2013-06-13 08:57:00,
2013-06-13 05:02:00,56.5,52.7,29.72,ESE,104,0.0,1.0,87,0.00,,,0.00,Wunderground v.1.15,2013-06-13 09:02:00,
2013-06-13 05:07:00,56.6,52.8,29.71,ESE,105,1.0,3.0,87,0.00,,,0.00,Wunderground v.1.15,2013-06-13 09:07:00,
2013-06-13 05:13:00,56.8,53.0,29.72,SSE,150,1.0,3.0,87,0.00,,,0.00,Wunderground v.1.15,2013-06-13 09:13:00,
2013-06-13 05:19:00,56.9,53.4,29.71,NE,35,1.0,5.0,88,0.00,,,0.00,Wunderground v.1.15,2013-06-13 09:19:00,
2013-06-13 05:25:00,57.2,53.7,29.71,SE,128,1.0,2.0,88,0.00,,,0.00,Wunderground v.1.15,2013-06-13 09:25:00,
2013-06-13 05:30:00,57.3,53.8,29.72,East,98,1.0,1.0,88,0.00,,,0.00,Wunderground v.1.15,2013-06-13 09:30:00,
2013-06-13 05:35:00,57.5,54.0,29.72,ENE,78,0.0,1.0,88,0.00,,,0.00,Wunderground v.1.15,2013-06-13 09:35:00,
2013-06-13 05:41:00,57.5,54.0,29.71,ENE,71,0.0,1.0,88,0.00,,,0.00,Wunderground v.1.15,2013-06-13 09:41:00,
2013-06-13 05:47:00,57.5,54.0,29.71,ENE,64,0.0,1.0,88,0.00,,,0.00,Wunderground v.1.15,2013-06-13 09:47:00,
2013-06-13 05:52:00,57.5,54.0,29.71,ENE,61,1.0,2.0,88,0.00,,,0.00,Wunderground v.1.15,2013-06-13 09:52:00,
2013-06-13 05:58:00,57.6,54.1,29.71,NE,47,1.0,3.0,88,0.00,,,0.00,Wunderground v.1.15,2013-06-13 09:58:00,
2013-06-13 06:04:00,57.5,54.0,29.71,NE,40,1.0,3.0,88,0.00,,,0.00,Wunderground v.1.15,2013-06-13 10:04:00,
2013-06-13 06:10:00,57.4,53.9,29.71,ENE,64,1.0,1.0,88,0.00,,,0.00,Wunderground v.1.15,2013-06-13 10:10:00,
2013-06-13 06:15:00,57.3,53.8,29.71,NE,45,2.0,5.0,88,0.00,,,0.00,Wunderground v.1.15,2013-06-13 10:15:00,
2013-06-13 06:21:00,57.3,53.8,29.71,NE,42,2.0,2.0,88,0.00,,,0.00,Wunderground v.1.15,2013-06-13 10:21:00,
2013-06-13 06:26:00,57.3,53.8,29.71,NE,38,2.0,6.0,88,0.00,,,0.00,Wunderground v.1.15,2013-06-13 10:26:00,
2013-06-13 06:32:00,57.3,53.8,29.70,NE,35,2.0,5.0,88,0.00,,,0.00,Wunderground v.1.15,2013-06-13 10:32:00,
2013-06-13 06:38:00,57.3,53.8,29.70,NE,52,2.0,5.0,88,0.00,,,0.00,Wunderground v.1.15,2013-06-13 10:38:00,
2013-06-13 06:44:00,57.3,53.8,29.70,NE,47,2.0,4.0,88,0.00,,,0.00,Wunderground v.1.15,2013-06-13 10:44:00,
2013-06-13 06:50:00,57.4,53.9,29.70,NE,46,2.0,2.0,88,0.00,,,0.00,Wunderground v.1.15,2013-06-13 10:50:00,
2013-06-13 06:55:00,57.4,53.9,29.69,ENE,58,1.0,4.0,88,0.00,,,0.00,Wunderground v.1.15,2013-06-13 10:55:00,
2013-06-13 07:00:00,57.5,54.0,29.69,NE,40,2.0,7.0,88,0.00,,,0.00,Wunderground v.1.15,2013-06-13 11:00:00,
2013-06-13 07:05:00,57.4,53.9,29.69,NNE,30,4.0,7.0,88,0.00,,,0.00,Wunderground v.1.15,2013-06-13 11:05:00,
2013-06-13 07:11:00,57.3,53.8,29.69,ENE,64,3.0,6.0,88,0.00,,,0.00,Wunderground v.1.15,2013-06-13 11:11:00,
2013-06-13 08:15:00,56.9,53.1,29.68,East,91,1.0,11.0,87,0.13,,,0.04,Wunderground v.1.15,2013-06-13 12:15:00,
2013-06-13 08:21:00,56.8,53.0,29.69,ESE,103,1.0,2.0,87,0.11,,,0.06,Wunderground v.1.15,2013-06-13 12:21:00,
2013-06-13 08:27:00,56.8,52.7,29.68,East,88,1.0,5.0,86,0.09,,,0.06,Wunderground v.1.15,2013-06-13 12:27:00,
2013-06-13 08:32:00,56.7,52.6,29.68,ENE,59,1.0,3.0,86,0.15,,,0.08,Wunderground v.1.15,2013-06-13 12:32:00,
2013-06-13 08:38:00,56.6,52.5,29.67,ENE,63,2.0,3.0,86,0.24,,,0.10,Wunderground v.1.15,2013-06-13 12:38:00,
2013-06-13 08:44:00,56.5,52.4,29.67,NE,43,2.0,4.0,86,0.14,,,0.11,Wunderground v.1.15,2013-06-13 12:44:00,
2013-06-13 08:50:00,56.5,52.0,29.67,NE,36,2.0,4.0,85,0.13,,,0.13,Wunderground v.1.15,2013-06-13 12:50:00,
2013-06-13 08:56:00,56.5,52.0,29.67,ENE,71,3.0,9.0,85,0.14,,,0.14,Wunderground v.1.15,2013-06-13 12:56:00,
2013-06-13 09:00:00,56.5,52.0,29.67,East,86,4.0,5.0,85,0.09,,,0.14,Wunderground v.1.15,2013-06-13 13:00:00,
2013-06-13 09:06:00,56.4,51.9,29.66,ENE,64,4.0,5.0,85,0.08,,,0.15,Wunderground v.1.15,2013-06-13 13:06:00,
2013-06-13 09:11:00,56.4,51.9,29.66,ENE,63,4.0,4.0,85,0.07,,,0.16,Wunderground v.1.15,2013-06-13 13:11:00,
2013-06-13 09:17:00,56.2,51.7,29.66,NE,36,3.0,6.0,85,0.12,,,0.17,Wunderground v.1.15,2013-06-13 13:17:00,
2013-06-13 09:22:00,56.1,51.7,29.66,ENE,68,2.0,3.0,85,0.23,,,0.19,Wunderground v.1.15,2013-06-13 13:22:00,
2013-06-13 09:28:00,56.1,51.3,29.66,ENE,71,2.0,5.0,84,0.31,,,0.22,Wunderground v.1.15,2013-06-13 13:28:00,
2013-06-13 09:34:00,56.1,51.3,29.66,East,97,2.0,3.0,84,0.26,,,0.24,Wunderground v.1.15,2013-06-13 13:34:00,
2013-06-13 09:40:00,56.1,51.3,29.66,ENE,59,2.0,5.0,84,0.29,,,0.27,Wunderground v.1.15,2013-06-13 13:40:00,
2013-06-13 09:45:00,56.1,51.3,29.66,NNE,15,3.0,7.0,84,0.38,,,0.30,Wunderground v.1.15,2013-06-13 13:45:00,
2013-06-13 09:50:00,56.0,51.2,29.66,NE,55,3.0,4.0,84,0.52,,,0.34,Wunderground v.1.15,2013-06-13 13:50:00,
2013-06-13 09:56:00,56.0,51.2,29.66,SE,143,2.0,4.0,84,0.39,,,0.38,Wunderground v.1.15,2013-06-13 13:56:00,
2013-06-13 10:01:00,56.1,51.0,29.66,East,86,3.0,3.0,83,0.52,,,0.43,Wunderground v.1.15,2013-06-13 14:01:00,
2013-06-13 10:07:00,56.1,51.0,29.66,NE,36,3.0,7.0,83,0.34,,,0.48,Wunderground v.1.15,2013-06-13 14:07:00,
2013-06-13 10:13:00,56.1,51.0,29.66,SSE,153,4.0,4.0,83,0.63,,,0.52,Wunderground v.1.15,2013-06-13 14:13:00,
2013-06-13 10:19:00,56.1,51.0,29.66,NNW,348,4.0,9.0,83,0.55,,,0.62,Wunderground v.1.15,2013-06-13 14:19:00,
2013-06-13 10:24:00,56.1,51.0,29.65,ENE,67,4.0,8.0,83,0.62,,,0.67,Wunderground v.1.15,2013-06-13 14:24:00,
2013-06-13 10:30:00,56.2,51.1,29.66,NE,46,3.0,5.0,83,0.43,,,0.71,Wunderground v.1.15,2013-06-13 14:30:00,
2013-06-13 10:36:00,56.2,51.1,29.66,NE,52,3.0,9.0,83,0.27,,,0.74,Wunderground v.1.15,2013-06-13 14:36:00,
2013-06-13 10:42:00,56.2,51.1,29.66,NE,53,3.0,4.0,83,0.16,,,0.76,Wunderground v.1.15,2013-06-13 14:42:00,
2013-06-13 10:48:00,56.2,51.1,29.66,ENE,59,3.0,4.0,83,0.20,,,0.77,Wunderground v.1.15,2013-06-13 14:48:00,
2013-06-13 10:53:00,56.3,50.9,29.66,SSE,150,4.0,6.0,82,0.16,,,0.79,Wunderground v.1.15,2013-06-13 14:53:00,
2013-06-13 10:59:00,56.3,51.2,29.66,ENE,66,4.0,7.0,83,0.26,,,0.82,Wunderground v.1.15,2013-06-13 14:59:00,
2013-06-13 11:05:00,56.4,51.3,29.66,NE,38,3.0,10.0,83,0.21,,,0.85,Wunderground v.1.15,2013-06-13 15:05:00,
2013-06-13 11:11:00,56.4,51.0,29.65,NE,40,3.0,6.0,82,0.18,,,0.87,Wunderground v.1.15,2013-06-13 15:11:00,
2013-06-13 11:16:00,56.5,51.1,29.65,NE,40,4.0,6.0,82,0.19,,,0.88,Wunderground v.1.15,2013-06-13 15:16:00,
2013-06-13 11:22:00,56.5,51.1,29.65,NE,49,5.0,5.0,82,0.17,,,0.90,Wunderground v.1.15,2013-06-13 15:22:00,
2013-06-13 11:28:00,56.6,51.2,29.64,NNE,33,5.0,11.0,82,0.15,,,0.91,Wunderground v.1.15,2013-06-13 15:28:00,
2013-06-13 11:34:00,56.7,51.3,29.64,ENE,63,5.0,7.0,82,0.45,,,0.95,Wunderground v.1.15,2013-06-13 15:34:00,
2013-06-13 11:39:00,56.8,51.4,29.64,NE,49,4.0,7.0,82,0.25,,,0.97,Wunderground v.1.15,2013-06-13 15:39:00,
2013-06-13 11:45:00,56.9,51.5,29.63,NE,44,4.0,9.0,82,0.14,,,0.98,Wunderground v.1.15,2013-06-13 15:45:00,
2013-06-13 11:51:00,57.0,51.6,29.63,East,88,6.0,6.0,82,0.10,,,0.99,Wunderground v.1.15,2013-06-13 15:51:00,
2013-06-13 11:57:00,57.1,51.7,29.62,ENE,57,5.0,11.0,82,0.09,,,1.00,Wunderground v.1.15,2013-06-13 15:57:00,
2013-06-13 12:02:00,57.2,51.8,29.62,SE,130,4.0,7.0,82,0.07,,,1.00,Wunderground v.1.15,2013-06-13 16:02:00,
2013-06-13 12:07:00,57.2,51.8,29.62,ENE,72,5.0,14.0,82,0.05,,,1.01,Wunderground v.1.15,2013-06-13 16:07:00,
2013-06-13 12:12:00,57.2,51.8,29.62,East,92,5.0,6.0,82,0.05,,,1.01,Wunderground v.1.15,2013-06-13 16:12:00,
2013-06-13 12:18:00,57.2,51.8,29.62,ENE,76,4.0,10.0,82,0.28,,,1.04,Wunderground v.1.15,2013-06-13 16:18:00,
2013-06-13 12:24:00,57.3,51.9,29.62,ESE,109,5.0,8.0,82,0.14,,,1.05,Wunderground v.1.15,2013-06-13 16:24:00,
2013-06-13 12:30:00,57.3,51.9,29.62,ENE,57,4.0,6.0,82,0.09,,,1.06,Wunderground v.1.15,2013-06-13 16:30:00,
2013-06-13 12:36:00,57.4,52.3,29.61,ENE,64,4.0,9.0,83,0.11,,,1.07,Wunderground v.1.15,2013-06-13 16:36:00,
2013-06-13 12:42:00,57.4,52.3,29.61,NNE,25,5.0,6.0,83,0.13,,,1.09,Wunderground v.1.15,2013-06-13 16:42:00,
2013-06-13 12:48:00,57.5,52.4,29.61,ENE,57,4.0,6.0,83,0.13,,,1.10,Wunderground v.1.15,2013-06-13 16:48:00,
2013-06-13 12:53:00,57.6,52.5,29.61,ENE,76,4.0,10.0,83,0.15,,,1.11,Wunderground v.1.15,2013-06-13 16:53:00,
2013-06-13 12:59:00,57.6,52.5,29.61,NE,50,4.0,10.0,83,0.12,,,1.12,Wunderground v.1.15,2013-06-13 16:59:00,
2013-06-13 13:05:00,57.7,52.6,29.61,NNE,24,5.0,5.0,83,0.08,,,1.13,Wunderground v.1.15,2013-06-13 17:05:00,
2013-06-13 13:10:00,57.8,52.7,29.61,ENE,57,5.0,7.0,83,0.07,,,1.13,Wunderground v.1.15,2013-06-13 17:10:00,
2013-06-13 13:16:00,57.9,52.8,29.61,ENE,67,3.0,7.0,83,0.07,,,1.14,Wunderground v.1.15,2013-06-13 17:16:00,
2013-06-13 13:23:00,58.0,52.9,29.61,ENE,71,4.0,10.0,83,0.06,,,1.15,Wunderground v.1.15,2013-06-13 17:23:00,
2013-06-13 13:29:00,58.1,53.3,29.61,NE,35,4.0,10.0,84,0.06,,,1.15,Wunderground v.1.15,2013-06-13 17:29:00,
2013-06-13 13:34:00,58.1,53.3,29.61,SE,134,4.0,11.0,84,0.05,,,1.16,Wunderground v.1.15,2013-06-13 17:34:00,
2013-06-13 13:39:00,58.0,53.2,29.61,East,96,4.0,4.0,84,0.05,,,1.16,Wunderground v.1.15,2013-06-13 17:39:00,
2013-06-13 13:45:00,57.9,53.4,29.61,ENE,57,5.0,18.0,85,0.05,,,1.16,Wunderground v.1.15,2013-06-13 17:45:00,
2013-06-13 13:51:00,57.9,53.4,29.61,NNE,32,6.0,10.0,85,0.04,,,1.17,Wunderground v.1.15,2013-06-13 17:51:00,
2013-06-13 13:56:00,58.0,53.5,29.61,NE,50,5.0,10.0,85,0.08,,,1.18,Wunderground v.1.15,2013-06-13 17:56:00,
2013-06-13 14:02:00,58.0,53.5,29.61,East,91,4.0,4.0,85,0.08,,,1.18,Wunderground v.1.15,2013-06-13 18:02:00,
2013-06-13 14:07:00,57.9,53.4,29.61,ENE,58,5.0,11.0,85,0.13,,,1.20,Wunderground v.1.15,2013-06-13 18:07:00,
2013-06-13 14:12:00,57.9,53.4,29.61,ENE,57,5.0,10.0,85,0.11,,,1.20,Wunderground v.1.15,2013-06-13 18:12:00,
2013-06-13 14:18:00,58.0,53.5,29.61,NE,40,5.0,10.0,85,0.07,,,1.21,Wunderground v.1.15,2013-06-13 18:18:00,
2013-06-13 14:23:00,58.0,53.5,29.61,ENE,69,5.0,11.0,85,0.13,,,1.22,Wunderground v.1.15,2013-06-13 18:23:00,
2013-06-13 14:28:00,57.9,53.4,29.61,NNE,30,6.0,14.0,85,0.09,,,1.23,Wunderground v.1.15,2013-06-13 18:28:00,
2013-06-13 14:34:00,57.9,53.4,29.61,NE,49,7.0,16.0,85,0.09,,,1.23,Wunderground v.1.15,2013-06-13 18:34:00,
2013-06-13 14:39:00,57.9,53.4,29.62,NE,52,7.0,7.0,85,0.07,,,1.24,Wunderground v.1.15,2013-06-13 18:39:00,
2013-06-13 14:44:00,57.8,53.3,29.62,NE,37,6.0,16.0,85,0.07,,,1.24,Wunderground v.1.15,2013-06-13 18:44:00,
2013-06-13 14:50:00,57.9,53.4,29.61,NNE,30,5.0,5.0,85,0.05,,,1.25,Wunderground v.1.15,2013-06-13 18:50:00,
2013-06-13 14:55:00,57.9,53.4,29.61,ENE,62,4.0,5.0,85,0.05,,,1.25,Wunderground v.1.15,2013-06-13 18:55:00,
2013-06-13 15:00:00,58.0,53.5,29.61,ENE,73,4.0,7.0,85,0.05,,,1.25,Wunderground v.1.15,2013-06-13 19:00:00,
2013-06-13 15:06:00,58.2,53.7,29.61,NNE,33,4.0,7.0,85,0.04,,,1.26,Wunderground v.1.15,2013-06-13 19:06:00,
2013-06-13 15:11:00,58.3,54.1,29.61,SSE,150,3.0,10.0,86,0.08,,,1.27,Wunderground v.1.15,2013-06-13 19:11:00,
2013-06-13 15:16:00,58.3,53.8,29.61,NE,52,4.0,10.0,85,0.08,,,1.27,Wunderground v.1.15,2013-06-13 19:16:00,
2013-06-13 15:22:00,58.4,53.9,29.62,ENE,61,4.0,5.0,85,0.05,,,1.27,Wunderground v.1.15,2013-06-13 19:22:00,
2013-06-13 15:27:00,58.3,54.1,29.62,NE,44,4.0,5.0,86,0.04,,,1.28,Wunderground v.1.15,2013-06-13 19:27:00,
2013-06-13 15:33:00,58.3,54.1,29.62,SSE,157,4.0,8.0,86,0.04,,,1.28,Wunderground v.1.15,2013-06-13 19:33:00,
2013-06-13 15:38:00,58.2,54.0,29.62,NE,53,4.0,8.0,86,0.04,,,1.28,Wunderground v.1.15,2013-06-13 19:38:00,
2013-06-13 15:43:00,58.1,53.9,29.63,NE,52,5.0,9.0,86,0.00,,,1.28,Wunderground v.1.15,2013-06-13 19:43:00,
2013-06-13 15:49:00,58.1,53.9,29.63,East,90,6.0,10.0,86,0.00,,,1.28,Wunderground v.1.15,2013-06-13 19:49:00,
2013-06-13 15:54:00,58.1,53.9,29.63,South,183,5.0,7.0,86,0.00,,,1.28,Wunderground v.1.15,2013-06-13 19:54:00,
2013-06-13 15:59:00,58.0,53.8,29.63,NNE,22,5.0,5.0,86,0.00,,,1.29,Wunderground v.1.15,2013-06-13 19:59:00,
2013-06-13 16:05:00,58.0,53.8,29.63,East,88,5.0,11.0,86,0.00,,,1.29,Wunderground v.1.15,2013-06-13 20:05:00,
2013-06-13 16:10:00,58.0,53.8,29.63,NNE,22,4.0,5.0,86,0.00,,,1.29,Wunderground v.1.15,2013-06-13 20:10:00,
2013-06-13 16:16:00,57.9,53.7,29.64,North,5,5.0,11.0,86,0.00,,,1.29,Wunderground v.1.15,2013-06-13 20:16:00,
2013-06-13 16:21:00,58.0,53.8,29.63,ENE,71,4.0,10.0,86,0.00,,,1.29,Wunderground v.1.15,2013-06-13 20:21:00,
2013-06-13 16:26:00,58.0,53.8,29.63,ESE,110,4.0,12.0,86,0.00,,,1.29,Wunderground v.1.15,2013-06-13 20:26:00,
2013-06-13 16:32:00,58.0,53.8,29.64,NNE,20,4.0,5.0,86,0.00,,,1.29,Wunderground v.1.15,2013-06-13 20:32:00,
2013-06-13 16:37:00,58.0,54.2,29.64,NE,44,4.0,9.0,87,0.00,,,1.29,Wunderground v.1.15,2013-06-13 20:37:00,
2013-06-13 16:42:00,58.0,54.2,29.64,South,184,5.0,12.0,87,0.00,,,1.29,Wunderground v.1.15,2013-06-13 20:42:00,
2013-06-13 16:49:00,57.8,54.0,29.64,NNE,32,5.0,12.0,87,0.00,,,1.29,Wunderground v.1.15,2013-06-13 20:49:00,
2013-06-13 16:54:00,57.8,54.0,29.64,ENE,61,4.0,10.0,87,0.00,,,1.29,Wunderground v.1.15,2013-06-13 20:54:00,
2013-06-13 17:00:00,57.7,53.9,29.64,NE,43,6.0,6.0,87,0.00,,,1.29,Wunderground v.1.15,2013-06-13 21:00:00,
2013-06-13 17:05:00,57.6,53.8,29.64,NE,46,5.0,6.0,87,0.00,,,1.29,Wunderground v.1.15,2013-06-13 21:05:00,
2013-06-13 17:11:00,57.6,53.8,29.64,NE,49,4.0,5.0,87,0.00,,,1.29,Wunderground v.1.15,2013-06-13 21:11:00,
2013-06-13 17:16:00,57.6,53.8,29.64,ENE,58,5.0,10.0,87,0.00,,,1.29,Wunderground v.1.15,2013-06-13 21:16:00,
2013-06-13 17:21:00,57.6,53.8,29.64,NE,43,5.0,5.0,87,0.00,,,1.29,Wunderground v.1.15,2013-06-13 21:21:00,
2013-06-13 17:27:00,57.6,53.8,29.64,NE,42,5.0,10.0,87,0.00,,,1.29,Wunderground v.1.15,2013-06-13 21:27:00,
2013-06-13 17:32:00,57.5,53.7,29.64,NE,50,5.0,11.0,87,0.00,,,1.29,Wunderground v.1.15,2013-06-13 21:32:00,
2013-06-13 17:37:00,57.6,53.8,29.65,East,90,4.0,11.0,87,0.00,,,1.29,Wunderground v.1.15,2013-06-13 21:37:00,
2013-06-13 17:43:00,57.5,53.7,29.65,NE,47,4.0,7.0,87,0.00,,,1.29,Wunderground v.1.15,2013-06-13 21:43:00,
2013-06-13 17:48:00,57.6,53.8,29.65,ENE,59,4.0,7.0,87,0.00,,,1.29,Wunderground v.1.15,2013-06-13 21:48:00,
2013-06-13 17:54:00,57.7,53.9,29.65,East,80,3.0,5.0,87,0.00,,,1.29,Wunderground v.1.15,2013-06-13 21:54:00,
2013-06-13 17:59:00,57.7,53.9,29.65,SE,138,3.0,10.0,87,0.00,,,1.30,Wunderground v.1.15,2013-06-13 21:59:00,
2013-06-13 18:05:00,57.8,54.0,29.65,NE,38,3.0,5.0,87,0.00,,,1.30,Wunderground v.1.15,2013-06-13 22:05:00,
2013-06-13 18:11:00,57.8,54.0,29.65,NE,36,2.0,4.0,87,0.00,,,1.30,Wunderground v.1.15,2013-06-13 22:11:00,
2013-06-13 18:16:00,57.8,54.0,29.65,NE,36,1.0,4.0,87,0.00,,,1.30,Wunderground v.1.15,2013-06-13 22:16:00,
2013-06-13 18:21:00,57.8,54.0,29.65,NE,37,1.0,2.0,87,0.00,,,1.30,Wunderground v.1.15,2013-06-13 22:21:00,
2013-06-13 18:27:00,57.8,54.0,29.65,NNE,26,2.0,3.0,87,0.00,,,1.30,Wunderground v.1.15,2013-06-13 22:27:00,
2013-06-13 18:32:00,57.7,53.9,29.65,NE,51,3.0,4.0,87,0.00,,,1.30,Wunderground v.1.15,2013-06-13 22:32:00,
2013-06-13 18:37:00,57.6,53.8,29.65,NE,54,3.0,4.0,87,0.00,,,1.31,Wunderground v.1.15,2013-06-13 22:37:00,
2013-06-13 18:43:00,57.5,53.7,29.65,NE,51,3.0,4.0,87,0.00,,,1.31,Wunderground v.1.15,2013-06-13 22:43:00,
2013-06-13 18:49:00,57.3,53.5,29.65,NE,36,4.0,6.0,87,0.00,,,1.31,Wunderground v.1.15,2013-06-13 22:49:00,
2013-06-13 18:54:00,57.2,53.4,29.66,ENE,61,3.0,3.0,87,0.00,,,1.31,Wunderground v.1.15,2013-06-13 22:54:00,
2013-06-13 19:00:00,57.2,53.4,29.66,ENE,66,2.0,2.0,87,0.00,,,1.31,Wunderground v.1.15,2013-06-13 23:00:00,
2013-06-13 19:05:00,57.1,53.3,29.67,NE,52,1.0,4.0,87,0.00,,,1.31,Wunderground v.1.15,2013-06-13 23:05:00,
2013-06-13 19:10:00,57.1,53.3,29.67,NE,53,1.0,6.0,87,0.00,,,1.31,Wunderground v.1.15,2013-06-13 23:10:00,
2013-06-13 19:16:00,57.0,53.2,29.67,NE,49,1.0,6.0,87,0.00,,,1.31,Wunderground v.1.15,2013-06-13 23:16:00,
2013-06-13 19:21:00,57.0,53.2,29.67,NE,50,1.0,3.0,87,0.00,,,1.31,Wunderground v.1.15,2013-06-13 23:21:00,
2013-06-13 19:26:00,56.9,53.1,29.67,NE,45,1.0,4.0,87,0.00,,,1.31,Wunderground v.1.15,2013-06-13 23:26:00,
2013-06-13 19:32:00,56.9,53.1,29.67,NE,47,1.0,1.0,87,0.00,,,1.31,Wunderground v.1.15,2013-06-13 23:32:00,
2013-06-13 19:37:00,56.8,52.7,29.67,NE,47,0.0,1.0,86,0.00,,,1.31,Wunderground v.1.15,2013-06-13 23:37:00,
2013-06-13 19:42:00,56.8,52.7,29.67,NE,47,0.0,0.0,86,0.00,,,1.32,Wunderground v.1.15,2013-06-13 23:42:00,
2013-06-13 19:48:00,56.8,52.7,29.68,NE,47,0.0,0.0,86,0.00,,,1.32,Wunderground v.1.15,2013-06-13 23:48:00,
2013-06-13 19:53:00,56.7,52.6,29.68,NE,47,0.0,0.0,86,0.00,,,1.32,Wunderground v.1.15,2013-06-13 23:53:00,
2013-06-13 19:58:00,56.7,52.6,29.68,NE,47,0.0,0.0,86,0.00,,,1.32,Wunderground v.1.15,2013-06-13 23:58:00,
2013-06-13 20:04:00,56.7,52.6,29.68,NE,47,0.0,0.0,86,0.00,,,1.32,Wunderground v.1.15,2013-06-14 00:04:00,
2013-06-13 20:09:00,56.7,52.6,29.68,NE,47,0.0,0.0,86,0.00,,,1.32,Wunderground v.1.15,2013-06-14 00:09:00,
2013-06-13 20:14:00,56.7,52.6,29.68,NE,47,0.0,1.0,86,0.00,,,1.32,Wunderground v.1.15,2013-06-14 00:14:00,
2013-06-13 20:20:00,56.6,52.1,29.69,NE,47,0.0,0.0,85,0.00,,,1.32,Wunderground v.1.15,2013-06-14 00:20:00,
2013-06-13 20:25:00,56.7,52.2,29.69,NE,47,0.0,2.0,85,0.00,,,1.32,Wunderground v.1.15,2013-06-14 00:25:00,
2013-06-13 20:30:00,56.7,52.2,29.69,NE,47,0.0,0.0,85,0.00,,,1.32,Wunderground v.1.15,2013-06-14 00:30:00,
2013-06-13 20:36:00,56.7,52.2,29.69,NE,47,0.0,0.0,85,0.00,,,1.32,Wunderground v.1.15,2013-06-14 00:36:00,
2013-06-13 20:41:00,56.6,52.1,29.69,NE,47,0.0,0.0,85,0.00,,,1.32,Wunderground v.1.15,2013-06-14 00:41:00,
2013-06-13 20:47:00,56.6,52.1,29.69,NE,47,0.0,0.0,85,0.00,,,1.32,Wunderground v.1.15,2013-06-14 00:47:00,
2013-06-13 20:52:00,56.6,52.1,29.69,NE,47,0.0,0.0,85,0.00,,,1.32,Wunderground v.1.15,2013-06-14 00:52:00,
2013-06-13 20:57:00,56.6,52.1,29.69,NE,47,0.0,0.0,85,0.00,,,1.32,Wunderground v.1.15,2013-06-14 00:57:00,
2013-06-13 21:02:00,56.5,52.0,29.69,NE,47,0.0,0.0,85,0.00,,,1.32,Wunderground v.1.15,2013-06-14 01:02:00,
2013-06-13 21:08:00,56.5,52.0,29.69,NE,47,0.0,0.0,85,0.00,,,1.32,Wunderground v.1.15,2013-06-14 01:08:00,
2013-06-13 21:14:00,56.5,52.0,29.69,NE,47,0.0,0.0,85,0.00,,,1.32,Wunderground v.1.15,2013-06-14 01:14:00,
2013-06-13 21:19:00,56.5,52.0,29.69,NE,47,0.0,0.0,85,0.00,,,1.32,Wunderground v.1.15,2013-06-14 01:19:00,
2013-06-13 21:24:00,56.4,51.9,29.69,NE,47,0.0,0.0,85,0.00,,,1.32,Wunderground v.1.15,2013-06-14 01:24:00,
2013-06-13 21:29:00,56.5,52.0,29.69,NE,47,0.0,0.0,85,0.00,,,1.32,Wunderground v.1.15,2013-06-14 01:29:00,
2013-06-13 21:35:00,56.5,51.7,29.70,NE,47,0.0,0.0,84,0.00,,,1.32,Wunderground v.1.15,2013-06-14 01:35:00,
2013-06-13 21:40:00,56.5,51.7,29.70,NE,47,0.0,0.0,84,0.00,,,1.32,Wunderground v.1.15,2013-06-14 01:40:00,
2013-06-13 21:45:00,56.5,52.0,29.70,NE,47,0.0,0.0,85,0.00,,,1.32,Wunderground v.1.15,2013-06-14 01:45:00,
2013-06-13 21:51:00,56.5,52.0,29.70,NE,47,0.0,0.0,85,0.00,,,1.32,Wunderground v.1.15,2013-06-14 01:51:00,
2013-06-13 21:56:00,56.4,51.9,29.71,NE,47,0.0,0.0,85,0.00,,,1.32,Wunderground v.1.15,2013-06-14 01:56:00,
2013-06-13 22:01:00,56.4,51.9,29.71,NE,47,0.0,0.0,85,0.00,,,1.32,Wunderground v.1.15,2013-06-14 02:01:00,
2013-06-13 22:07:00,56.3,51.8,29.70,NE,47,0.0,0.0,85,0.00,,,1.32,Wunderground v.1.15,2013-06-14 02:07:00,
2013-06-13 22:12:00,56.3,51.8,29.71,NE,47,0.0,1.0,85,0.00,,,1.32,Wunderground v.1.15,2013-06-14 02:12:00,
2013-06-13 22:17:00,56.2,51.7,29.71,NE,47,0.0,1.0,85,0.00,,,1.32,Wunderground v.1.15,2013-06-14 02:17:00,
2013-06-13 22:23:00,56.2,51.7,29.71,NE,47,0.0,0.0,85,0.00,,,1.32,Wunderground v.1.15,2013-06-14 02:23:00,
2013-06-13 22:28:00,56.2,51.7,29.72,NE,47,0.0,0.0,85,0.00,,,1.32,Wunderground v.1.15,2013-06-14 02:28:00,
2013-06-13 22:33:00,56.1,51.7,29.72,NE,47,0.0,0.0,85,0.00,,,1.32,Wunderground v.1.15,2013-06-14 02:33:00,
2013-06-13 22:39:00,56.0,51.6,29.72,NE,47,0.0,0.0,85,0.00,,,1.32,Wunderground v.1.15,2013-06-14 02:39:00,
2013-06-13 22:44:00,56.0,51.6,29.72,NE,47,0.0,0.0,85,0.00,,,1.32,Wunderground v.1.15,2013-06-14 02:44:00,
2013-06-13 22:49:00,55.9,51.5,29.73,NE,47,0.0,0.0,85,0.00,,,1.32,Wunderground v.1.15,2013-06-14 02:49:00,
2013-06-13 22:55:00,55.9,51.5,29.73,NE,47,0.0,0.0,85,0.00,,,1.32,Wunderground v.1.15,2013-06-14 02:55:00,
2013-06-13 23:00:00,55.8,51.4,29.73,NE,47,0.0,0.0,85,0.00,,,1.32,Wunderground v.1.15,2013-06-14 03:00:00,
2013-06-13 23:05:00,55.7,51.3,29.73,NE,47,0.0,0.0,85,0.00,,,1.32,Wunderground v.1.15,2013-06-14 03:05:00,
2013-06-13 23:11:00,55.7,51.3,29.73,NE,47,0.0,0.0,85,0.00,,,1.32,Wunderground v.1.15,2013-06-14 03:11:00,
2013-06-13 23:16:00,55.6,51.2,29.73,NE,47,0.0,0.0,85,0.00,,,1.32,Wunderground v.1.15,2013-06-14 03:16:00,
2013-06-13 23:21:00,55.5,51.1,29.73,NE,47,0.0,0.0,85,0.00,,,1.32,Wunderground v.1.15,2013-06-14 03:21:00,
2013-06-13 23:27:00,55.5,51.1,29.73,NE,47,0.0,0.0,85,0.00,,,1.32,Wunderground v.1.15,2013-06-14 03:27:00,
2013-06-13 23:32:00,55.4,51.0,29.73,NE,47,0.0,0.0,85,0.00,,,1.32,Wunderground v.1.15,2013-06-14 03:32:00,
2013-06-13 23:37:00,55.3,50.9,29.73,NE,46,0.0,0.0,85,0.00,,,1.32,Wunderground v.1.15,2013-06-14 03:37:00,
2013-06-13 23:43:00,55.3,50.9,29.73,NE,47,0.0,0.0,85,0.00,,,1.32,Wunderground v.1.15,2013-06-14 03:43:00,
2013-06-13 23:48:00,55.2,50.8,29.73,NE,47,0.0,0.0,85,0.00,,,1.32,Wunderground v.1.15,2013-06-14 03:48:00,
2013-06-13 23:53:00,55.2,50.8,29.73,NE,47,0.0,0.0,85,0.00,,,1.32,Wunderground v.1.15,2013-06-14 03:53:00,
2013-06-13 23:59:00,55.2,50.8,29.74,NE,47,0.0,0.0,85,0.00,,,1.32,Wunderground v.1.15,2013-06-14 03:59:00,